sensor_id;sensor_type;location;lat;lon;timestamp;P1;durP1;ratioP1;P2;durP2;ratioP2
3133;SDS011;1577;49.912;10.924;2024-01-07T00:01:37;15.87;;;9.40;;
3133;SDS011;1577;49.912;10.924;2024-01-07T00:04:03;13.57;;;10.40;;
3133;SDS011;1577;49.912;10.924;2024-01-07T00:06:29;12.77;;;9.57;;
3133;SDS011;1577;49.912;10.924;2024-01-07T00:08:54;14.40;;;9.07;;
3133;SDS011;1577;49.912;10.924;2024-01-07T00:11:20;13.10;;;8.50;;
3133;SDS011;1577;49.912;10.924;2024-01-07T00:13:45;16.43;;;9.37;;
3133;SDS011;1577;49.912;10.924;2024-01-07T00:16:11;12.97;;;9.47;;
3133;SDS011;1577;49.912;10.924;2024-01-07T00:18:37;12.93;;;8.00;;
3133;SDS011;1577;49.912;10.924;2024-01-07T00:21:03;13.20;;;9.30;;
3133;SDS011;1577;49.912;10.924;2024-01-07T00:23:29;15.03;;;9.33;;
3133;SDS011;1577;49.912;10.924;2024-01-07T00:25:55;14.50;;;8.83;;
3133;SDS011;1577;49.912;10.924;2024-01-07T00:28:21;12.43;;;9.10;;
3133;SDS011;1577;49.912;10.924;2024-01-07T00:30:47;11.07;;;7.97;;
3133;SDS011;1577;49.912;10.924;2024-01-07T00:33:12;13.47;;;8.33;;
3133;SDS011;1577;49.912;10.924;2024-01-07T00:35:38;12.07;;;8.13;;
3133;SDS011;1577;49.912;10.924;2024-01-07T00:38:03;13.57;;;7.93;;
3133;SDS011;1577;49.912;10.924;2024-01-07T00:40:29;19.40;;;8.20;;
3133;SDS011;1577;49.912;10.924;2024-01-07T00:42:54;14.40;;;8.57;;
3133;SDS011;1577;49.912;10.924;2024-01-07T00:45:20;12.33;;;8.03;;
3133;SDS011;1577;49.912;10.924;2024-01-07T00:47:46;13.57;;;8.50;;
3133;SDS011;1577;49.912;10.924;2024-01-07T00:50:12;11.97;;;8.13;;
3133;SDS011;1577;49.912;10.924;2024-01-07T00:52:38;11.27;;;7.30;;
3133;SDS011;1577;49.912;10.924;2024-01-07T00:55:04;12.07;;;8.37;;
3133;SDS011;1577;49.912;10.924;2024-01-07T00:57:31;15.97;;;9.07;;
3133;SDS011;1577;49.912;10.924;2024-01-07T00:59:57;11.57;;;8.00;;
3133;SDS011;1577;49.912;10.924;2024-01-07T01:02:22;17.07;;;9.20;;
3133;SDS011;1577;49.912;10.924;2024-01-07T01:04:48;12.57;;;7.13;;
3133;SDS011;1577;49.912;10.924;2024-01-07T01:07:16;8.80;;;6.47;;
3133;SDS011;1577;49.912;10.924;2024-01-07T01:09:42;11.93;;;6.60;;
3133;SDS011;1577;49.912;10.924;2024-01-07T01:12:07;9.23;;;6.77;;
3133;SDS011;1577;49.912;10.924;2024-01-07T01:14:33;7.63;;;5.73;;
3133;SDS011;1577;49.912;10.924;2024-01-07T01:16:58;9.30;;;6.00;;
3133;SDS011;1577;49.912;10.924;2024-01-07T01:19:24;9.27;;;5.87;;
3133;SDS011;1577;49.912;10.924;2024-01-07T01:21:50;7.63;;;5.27;;
3133;SDS011;1577;49.912;10.924;2024-01-07T01:24:15;6.80;;;5.47;;
3133;SDS011;1577;49.912;10.924;2024-01-07T01:26:41;6.50;;;5.27;;
3133;SDS011;1577;49.912;10.924;2024-01-07T01:29:06;8.80;;;5.80;;
3133;SDS011;1577;49.912;10.924;2024-01-07T01:31:32;10.60;;;5.70;;
3133;SDS011;1577;49.912;10.924;2024-01-07T01:33:58;7.60;;;5.80;;
3133;SDS011;1577;49.912;10.924;2024-01-07T01:36:23;8.57;;;5.37;;
3133;SDS011;1577;49.912;10.924;2024-01-07T01:38:49;7.83;;;5.03;;
3133;SDS011;1577;49.912;10.924;2024-01-07T01:41:15;8.70;;;5.80;;
3133;SDS011;1577;49.912;10.924;2024-01-07T01:43:41;8.33;;;5.67;;
3133;SDS011;1577;49.912;10.924;2024-01-07T01:46:07;7.30;;;4.70;;
3133;SDS011;1577;49.912;10.924;2024-01-07T01:48:33;7.53;;;4.90;;
3133;SDS011;1577;49.912;10.924;2024-01-07T01:51:00;6.83;;;5.30;;
3133;SDS011;1577;49.912;10.924;2024-01-07T01:53:27;7.50;;;5.37;;
3133;SDS011;1577;49.912;10.924;2024-01-07T01:55:53;6.70;;;5.03;;
3133;SDS011;1577;49.912;10.924;2024-01-07T01:58:25;6.80;;;5.50;;
3133;SDS011;1577;49.912;10.924;2024-01-07T02:00:52;4.73;;;3.87;;
3133;SDS011;1577;49.912;10.924;2024-01-07T02:03:18;8.77;;;5.87;;
3133;SDS011;1577;49.912;10.924;2024-01-07T02:05:53;7.30;;;4.87;;
3133;SDS011;1577;49.912;10.924;2024-01-07T02:08:23;8.77;;;5.00;;
3133;SDS011;1577;49.912;10.924;2024-01-07T02:10:50;6.50;;;4.90;;
3133;SDS011;1577;49.912;10.924;2024-01-07T02:13:19;7.07;;;5.47;;
3133;SDS011;1577;49.912;10.924;2024-01-07T02:15:47;11.53;;;5.87;;
3133;SDS011;1577;49.912;10.924;2024-01-07T02:18:13;7.73;;;5.83;;
3133;SDS011;1577;49.912;10.924;2024-01-07T02:20:39;6.37;;;4.67;;
3133;SDS011;1577;49.912;10.924;2024-01-07T02:23:05;9.83;;;5.53;;
3133;SDS011;1577;49.912;10.924;2024-01-07T02:25:36;7.97;;;5.40;;
3133;SDS011;1577;49.912;10.924;2024-01-07T02:28:02;8.47;;;5.90;;
3133;SDS011;1577;49.912;10.924;2024-01-07T02:30:29;9.00;;;5.80;;
3133;SDS011;1577;49.912;10.924;2024-01-07T02:32:54;6.30;;;4.50;;
3133;SDS011;1577;49.912;10.924;2024-01-07T02:35:20;8.87;;;4.03;;
3133;SDS011;1577;49.912;10.924;2024-01-07T02:37:45;5.97;;;4.33;;
3133;SDS011;1577;49.912;10.924;2024-01-07T02:40:11;7.80;;;4.90;;
3133;SDS011;1577;49.912;10.924;2024-01-07T02:42:37;6.80;;;4.67;;
3133;SDS011;1577;49.912;10.924;2024-01-07T02:45:02;8.20;;;5.13;;
3133;SDS011;1577;49.912;10.924;2024-01-07T02:47:28;8.40;;;5.20;;
3133;SDS011;1577;49.912;10.924;2024-01-07T02:49:57;9.10;;;4.60;;
3133;SDS011;1577;49.912;10.924;2024-01-07T02:52:23;6.73;;;4.33;;
3133;SDS011;1577;49.912;10.924;2024-01-07T02:54:49;6.43;;;5.13;;
3133;SDS011;1577;49.912;10.924;2024-01-07T02:57:14;6.80;;;4.70;;
3133;SDS011;1577;49.912;10.924;2024-01-07T02:59:40;6.87;;;4.73;;
3133;SDS011;1577;49.912;10.924;2024-01-07T03:02:06;7.37;;;4.67;;
3133;SDS011;1577;49.912;10.924;2024-01-07T03:04:31;8.53;;;5.57;;
3133;SDS011;1577;49.912;10.924;2024-01-07T03:06:57;10.23;;;5.30;;
3133;SDS011;1577;49.912;10.924;2024-01-07T03:09:23;7.80;;;5.00;;
3133;SDS011;1577;49.912;10.924;2024-01-07T03:11:50;10.00;;;6.23;;
3133;SDS011;1577;49.912;10.924;2024-01-07T03:14:15;7.37;;;4.80;;
3133;SDS011;1577;49.912;10.924;2024-01-07T03:16:45;7.97;;;6.00;;
3133;SDS011;1577;49.912;10.924;2024-01-07T03:19:10;5.57;;;2.93;;
3133;SDS011;1577;49.912;10.924;2024-01-07T03:21:36;6.40;;;4.53;;
3133;SDS011;1577;49.912;10.924;2024-01-07T03:24:02;10.87;;;5.67;;
3133;SDS011;1577;49.912;10.924;2024-01-07T03:26:29;7.00;;;4.47;;
3133;SDS011;1577;49.912;10.924;2024-01-07T03:28:57;10.00;;;5.33;;
3133;SDS011;1577;49.912;10.924;2024-01-07T03:31:24;7.27;;;4.60;;
3133;SDS011;1577;49.912;10.924;2024-01-07T03:33:53;9.50;;;5.30;;
3133;SDS011;1577;49.912;10.924;2024-01-07T03:36:19;7.03;;;4.10;;
3133;SDS011;1577;49.912;10.924;2024-01-07T03:38:45;6.87;;;4.30;;
3133;SDS011;1577;49.912;10.924;2024-01-07T03:41:20;9.43;;;6.03;;
3133;SDS011;1577;49.912;10.924;2024-01-07T03:43:46;8.37;;;4.07;;
3133;SDS011;1577;49.912;10.924;2024-01-07T03:46:12;8.70;;;5.63;;
3133;SDS011;1577;49.912;10.924;2024-01-07T03:48:41;10.93;;;5.30;;
3133;SDS011;1577;49.912;10.924;2024-01-07T03:51:07;9.73;;;5.47;;
3133;SDS011;1577;49.912;10.924;2024-01-07T03:53:33;9.00;;;6.17;;
3133;SDS011;1577;49.912;10.924;2024-01-07T03:55:59;9.03;;;6.00;;
3133;SDS011;1577;49.912;10.924;2024-01-07T03:58:24;10.50;;;6.07;;
3133;SDS011;1577;49.912;10.924;2024-01-07T04:00:50;11.07;;;7.13;;
3133;SDS011;1577;49.912;10.924;2024-01-07T04:03:15;10.07;;;5.30;;
3133;SDS011;1577;49.912;10.924;2024-01-07T04:05:41;10.20;;;5.83;;
3133;SDS011;1577;49.912;10.924;2024-01-07T04:08:09;10.50;;;5.77;;
3133;SDS011;1577;49.912;10.924;2024-01-07T04:10:34;11.23;;;7.57;;
3133;SDS011;1577;49.912;10.924;2024-01-07T04:13:00;12.10;;;6.93;;
3133;SDS011;1577;49.912;10.924;2024-01-07T04:15:26;13.43;;;7.27;;
3133;SDS011;1577;49.912;10.924;2024-01-07T04:17:51;16.93;;;6.77;;
3133;SDS011;1577;49.912;10.924;2024-01-07T04:20:17;12.87;;;7.87;;
3133;SDS011;1577;49.912;10.924;2024-01-07T04:22:42;11.83;;;7.00;;
3133;SDS011;1577;49.912;10.924;2024-01-07T04:25:08;12.40;;;7.73;;
3133;SDS011;1577;49.912;10.924;2024-01-07T04:27:35;13.53;;;6.77;;
3133;SDS011;1577;49.912;10.924;2024-01-07T04:30:01;9.00;;;6.27;;
3133;SDS011;1577;49.912;10.924;2024-01-07T04:32:27;9.83;;;5.00;;
3133;SDS011;1577;49.912;10.924;2024-01-07T04:34:52;8.23;;;6.30;;
3133;SDS011;1577;49.912;10.924;2024-01-07T04:37:18;9.63;;;5.93;;
3133;SDS011;1577;49.912;10.924;2024-01-07T04:39:44;11.83;;;6.47;;
3133;SDS011;1577;49.912;10.924;2024-01-07T04:42:09;7.83;;;4.73;;
3133;SDS011;1577;49.912;10.924;2024-01-07T04:44:35;7.37;;;4.93;;
3133;SDS011;1577;49.912;10.924;2024-01-07T04:47:01;7.50;;;3.43;;
3133;SDS011;1577;49.912;10.924;2024-01-07T04:49:26;6.10;;;4.37;;
3133;SDS011;1577;49.912;10.924;2024-01-07T04:51:54;8.30;;;5.30;;
3133;SDS011;1577;49.912;10.924;2024-01-07T04:54:20;8.43;;;6.13;;
3133;SDS011;1577;49.912;10.924;2024-01-07T04:56:45;8.13;;;5.63;;
3133;SDS011;1577;49.912;10.924;2024-01-07T04:59:11;8.37;;;5.90;;
3133;SDS011;1577;49.912;10.924;2024-01-07T05:01:36;8.90;;;5.90;;
3133;SDS011;1577;49.912;10.924;2024-01-07T05:04:04;8.03;;;5.87;;
3133;SDS011;1577;49.912;10.924;2024-01-07T05:06:29;6.83;;;4.87;;
3133;SDS011;1577;49.912;10.924;2024-01-07T05:08:55;6.27;;;3.57;;
3133;SDS011;1577;49.912;10.924;2024-01-07T05:11:20;5.40;;;3.80;;
3133;SDS011;1577;49.912;10.924;2024-01-07T05:13:46;8.13;;;4.40;;
3133;SDS011;1577;49.912;10.924;2024-01-07T05:16:19;6.00;;;4.50;;
3133;SDS011;1577;49.912;10.924;2024-01-07T05:18:45;4.10;;;2.63;;
3133;SDS011;1577;49.912;10.924;2024-01-07T05:21:22;7.27;;;5.37;;
3133;SDS011;1577;49.912;10.924;2024-01-07T05:23:48;5.13;;;3.50;;
3133;SDS011;1577;49.912;10.924;2024-01-07T05:26:13;8.33;;;4.60;;
3133;SDS011;1577;49.912;10.924;2024-01-07T05:28:39;10.87;;;7.17;;
3133;SDS011;1577;49.912;10.924;2024-01-07T05:31:04;8.00;;;5.37;;
3133;SDS011;1577;49.912;10.924;2024-01-07T05:33:41;9.07;;;5.95;;
3133;SDS011;1577;49.912;10.924;2024-01-07T05:36:07;9.60;;;4.97;;
3133;SDS011;1577;49.912;10.924;2024-01-07T05:38:33;8.53;;;5.77;;
3133;SDS011;1577;49.912;10.924;2024-01-07T05:40:58;10.50;;;6.03;;
3133;SDS011;1577;49.912;10.924;2024-01-07T05:43:24;10.57;;;6.00;;
3133;SDS011;1577;49.912;10.924;2024-01-07T05:45:49;7.10;;;5.23;;
3133;SDS011;1577;49.912;10.924;2024-01-07T05:48:15;11.43;;;6.53;;
3133;SDS011;1577;49.912;10.924;2024-01-07T05:50:40;9.50;;;5.97;;
3133;SDS011;1577;49.912;10.924;2024-01-07T05:53:06;9.17;;;5.87;;
3133;SDS011;1577;49.912;10.924;2024-01-07T05:55:32;9.50;;;4.33;;
3133;SDS011;1577;49.912;10.924;2024-01-07T05:57:58;9.30;;;6.90;;
3133;SDS011;1577;49.912;10.924;2024-01-07T06:00:23;10.13;;;7.07;;
3133;SDS011;1577;49.912;10.924;2024-01-07T06:02:49;11.33;;;6.97;;
3133;SDS011;1577;49.912;10.924;2024-01-07T06:05:14;11.67;;;5.40;;
3133;SDS011;1577;49.912;10.924;2024-01-07T06:07:40;12.30;;;6.73;;
3133;SDS011;1577;49.912;10.924;2024-01-07T06:10:06;9.77;;;6.20;;
3133;SDS011;1577;49.912;10.924;2024-01-07T06:12:31;11.03;;;7.43;;
3133;SDS011;1577;49.912;10.924;2024-01-07T06:14:57;12.67;;;6.37;;
3133;SDS011;1577;49.912;10.924;2024-01-07T06:17:23;12.70;;;7.10;;
3133;SDS011;1577;49.912;10.924;2024-01-07T06:19:48;10.17;;;6.50;;
3133;SDS011;1577;49.912;10.924;2024-01-07T06:22:14;8.67;;;6.00;;
3133;SDS011;1577;49.912;10.924;2024-01-07T06:24:40;9.60;;;6.13;;
3133;SDS011;1577;49.912;10.924;2024-01-07T06:27:05;12.30;;;6.40;;
3133;SDS011;1577;49.912;10.924;2024-01-07T06:29:31;11.63;;;7.00;;
3133;SDS011;1577;49.912;10.924;2024-01-07T06:31:57;11.57;;;5.90;;
3133;SDS011;1577;49.912;10.924;2024-01-07T06:34:22;8.50;;;5.50;;
3133;SDS011;1577;49.912;10.924;2024-01-07T06:36:48;9.90;;;5.70;;
3133;SDS011;1577;49.912;10.924;2024-01-07T06:39:13;10.50;;;6.33;;
3133;SDS011;1577;49.912;10.924;2024-01-07T06:41:39;10.00;;;6.07;;
3133;SDS011;1577;49.912;10.924;2024-01-07T06:44:10;6.18;;;3.95;;
3133;SDS011;1577;49.912;10.924;2024-01-07T06:46:37;9.95;;;6.30;;
3133;SDS011;1577;49.912;10.924;2024-01-07T06:49:05;12.20;;;6.50;;
3133;SDS011;1577;49.912;10.924;2024-01-07T06:51:30;9.55;;;5.82;;
3133;SDS011;1577;49.912;10.924;2024-01-07T06:53:56;11.63;;;6.90;;
3133;SDS011;1577;49.912;10.924;2024-01-07T06:56:22;9.33;;;6.50;;
3133;SDS011;1577;49.912;10.924;2024-01-07T06:58:49;7.07;;;4.73;;
3133;SDS011;1577;49.912;10.924;2024-01-07T07:01:17;9.17;;;5.30;;
3133;SDS011;1577;49.912;10.924;2024-01-07T07:03:48;10.35;;;6.35;;
3133;SDS011;1577;49.912;10.924;2024-01-07T07:06:14;11.80;;;7.55;;
3133;SDS011;1577;49.912;10.924;2024-01-07T07:08:40;10.90;;;5.83;;
3133;SDS011;1577;49.912;10.924;2024-01-07T07:11:05;13.00;;;7.60;;
3133;SDS011;1577;49.912;10.924;2024-01-07T07:13:31;10.87;;;6.90;;
3133;SDS011;1577;49.912;10.924;2024-01-07T07:15:56;13.50;;;7.60;;
3133;SDS011;1577;49.912;10.924;2024-01-07T07:18:22;11.97;;;7.50;;
3133;SDS011;1577;49.912;10.924;2024-01-07T07:20:47;12.13;;;7.20;;
3133;SDS011;1577;49.912;10.924;2024-01-07T07:23:13;12.30;;;7.53;;
3133;SDS011;1577;49.912;10.924;2024-01-07T07:25:39;11.10;;;7.03;;
3133;SDS011;1577;49.912;10.924;2024-01-07T07:28:04;11.23;;;7.27;;
3133;SDS011;1577;49.912;10.924;2024-01-07T07:30:30;10.70;;;7.07;;
3133;SDS011;1577;49.912;10.924;2024-01-07T07:32:55;10.47;;;7.17;;
3133;SDS011;1577;49.912;10.924;2024-01-07T07:35:21;10.07;;;6.40;;
3133;SDS011;1577;49.912;10.924;2024-01-07T07:37:47;9.27;;;6.13;;
3133;SDS011;1577;49.912;10.924;2024-01-07T07:40:12;9.47;;;6.60;;
3133;SDS011;1577;49.912;10.924;2024-01-07T07:42:38;9.27;;;6.20;;
3133;SDS011;1577;49.912;10.924;2024-01-07T07:45:04;10.30;;;6.27;;
3133;SDS011;1577;49.912;10.924;2024-01-07T07:47:30;8.13;;;5.85;;
3133;SDS011;1577;49.912;10.924;2024-01-07T07:49:56;9.77;;;5.67;;
3133;SDS011;1577;49.912;10.924;2024-01-07T07:52:22;9.17;;;6.53;;
3133;SDS011;1577;49.912;10.924;2024-01-07T07:54:51;7.80;;;5.10;;
3133;SDS011;1577;49.912;10.924;2024-01-07T07:57:17;8.63;;;5.82;;
3133;SDS011;1577;49.912;10.924;2024-01-07T07:59:45;6.35;;;3.95;;
3133;SDS011;1577;49.912;10.924;2024-01-07T08:02:11;6.20;;;4.67;;
3133;SDS011;1577;49.912;10.924;2024-01-07T08:04:37;7.47;;;5.10;;
3133;SDS011;1577;49.912;10.924;2024-01-07T08:07:06;9.15;;;6.20;;
3133;SDS011;1577;49.912;10.924;2024-01-07T08:09:31;7.30;;;4.73;;
3133;SDS011;1577;49.912;10.924;2024-01-07T08:11:57;10.07;;;6.87;;
3133;SDS011;1577;49.912;10.924;2024-01-07T08:14:23;9.30;;;6.60;;
3133;SDS011;1577;49.912;10.924;2024-01-07T08:16:48;13.03;;;6.97;;
3133;SDS011;1577;49.912;10.924;2024-01-07T08:19:14;10.37;;;7.20;;
3133;SDS011;1577;49.912;10.924;2024-01-07T08:21:39;11.50;;;6.47;;
3133;SDS011;1577;49.912;10.924;2024-01-07T08:24:05;10.90;;;7.90;;
3133;SDS011;1577;49.912;10.924;2024-01-07T08:26:31;11.53;;;7.80;;
3133;SDS011;1577;49.912;10.924;2024-01-07T08:28:56;13.17;;;7.30;;
3133;SDS011;1577;49.912;10.924;2024-01-07T08:31:22;15.20;;;8.77;;
3133;SDS011;1577;49.912;10.924;2024-01-07T08:33:47;9.10;;;5.83;;
3133;SDS011;1577;49.912;10.924;2024-01-07T08:36:13;9.63;;;7.77;;
3133;SDS011;1577;49.912;10.924;2024-01-07T08:38:39;13.13;;;7.60;;
3133;SDS011;1577;49.912;10.924;2024-01-07T08:41:04;10.80;;;7.50;;
3133;SDS011;1577;49.912;10.924;2024-01-07T08:43:30;15.37;;;9.80;;
3133;SDS011;1577;49.912;10.924;2024-01-07T08:45:55;12.60;;;6.97;;
3133;SDS011;1577;49.912;10.924;2024-01-07T08:48:21;9.93;;;5.60;;
3133;SDS011;1577;49.912;10.924;2024-01-07T08:50:46;12.37;;;7.70;;
3133;SDS011;1577;49.912;10.924;2024-01-07T08:53:12;14.63;;;8.83;;
3133;SDS011;1577;49.912;10.924;2024-01-07T08:55:37;5.50;;;4.40;;
3133;SDS011;1577;49.912;10.924;2024-01-07T08:58:03;10.87;;;7.37;;
3133;SDS011;1577;49.912;10.924;2024-01-07T09:00:29;10.17;;;7.03;;
3133;SDS011;1577;49.912;10.924;2024-01-07T09:02:56;14.05;;;8.70;;
3133;SDS011;1577;49.912;10.924;2024-01-07T09:05:22;15.70;;;9.07;;
3133;SDS011;1577;49.912;10.924;2024-01-07T09:07:49;17.52;;;9.35;;
3133;SDS011;1577;49.912;10.924;2024-01-07T09:10:15;10.87;;;6.93;;
3133;SDS011;1577;49.912;10.924;2024-01-07T09:12:40;13.80;;;8.80;;
3133;SDS011;1577;49.912;10.924;2024-01-07T09:15:06;17.43;;;9.00;;
3133;SDS011;1577;49.912;10.924;2024-01-07T09:17:36;15.45;;;7.82;;
3133;SDS011;1577;49.912;10.924;2024-01-07T09:20:03;13.75;;;8.23;;
3133;SDS011;1577;49.912;10.924;2024-01-07T09:22:32;15.25;;;8.45;;
3133;SDS011;1577;49.912;10.924;2024-01-07T09:24:57;13.33;;;9.53;;
3133;SDS011;1577;49.912;10.924;2024-01-07T09:27:23;15.20;;;8.00;;
3133;SDS011;1577;49.912;10.924;2024-01-07T09:29:49;12.17;;;7.67;;
3133;SDS011;1577;49.912;10.924;2024-01-07T09:32:14;11.83;;;7.87;;
3133;SDS011;1577;49.912;10.924;2024-01-07T09:34:40;10.40;;;6.17;;
3133;SDS011;1577;49.912;10.924;2024-01-07T09:37:05;16.13;;;8.93;;
3133;SDS011;1577;49.912;10.924;2024-01-07T09:39:31;16.40;;;9.40;;
3133;SDS011;1577;49.912;10.924;2024-01-07T09:41:57;10.90;;;6.70;;
3133;SDS011;1577;49.912;10.924;2024-01-07T09:44:23;11.63;;;6.88;;
3133;SDS011;1577;49.912;10.924;2024-01-07T09:46:49;14.90;;;8.80;;
3133;SDS011;1577;49.912;10.924;2024-01-07T09:49:17;11.85;;;7.70;;
3133;SDS011;1577;49.912;10.924;2024-01-07T09:51:43;11.10;;;7.40;;
3133;SDS011;1577;49.912;10.924;2024-01-07T09:54:13;17.58;;;8.20;;
3133;SDS011;1577;49.912;10.924;2024-01-07T09:56:42;9.65;;;4.53;;
3133;SDS011;1577;49.912;10.924;2024-01-07T09:59:17;14.38;;;7.05;;
3133;SDS011;1577;49.912;10.924;2024-01-07T10:01:43;15.65;;;9.00;;
3133;SDS011;1577;49.912;10.924;2024-01-07T10:04:10;10.38;;;6.50;;
3133;SDS011;1577;49.912;10.924;2024-01-07T10:06:36;10.90;;;6.20;;
3133;SDS011;1577;49.912;10.924;2024-01-07T10:09:02;11.27;;;6.55;;
3133;SDS011;1577;49.912;10.924;2024-01-07T10:11:31;9.02;;;6.38;;
3133;SDS011;1577;49.912;10.924;2024-01-07T10:13:56;12.47;;;7.83;;
3133;SDS011;1577;49.912;10.924;2024-01-07T10:16:22;13.03;;;6.30;;
3133;SDS011;1577;49.912;10.924;2024-01-07T10:18:48;14.57;;;8.50;;
3133;SDS011;1577;49.912;10.924;2024-01-07T10:21:13;10.87;;;6.90;;
3133;SDS011;1577;49.912;10.924;2024-01-07T10:23:39;9.13;;;6.10;;
3133;SDS011;1577;49.912;10.924;2024-01-07T10:26:05;12.37;;;7.23;;
3133;SDS011;1577;49.912;10.924;2024-01-07T10:28:31;12.95;;;7.35;;
3133;SDS011;1577;49.912;10.924;2024-01-07T10:30:57;11.60;;;8.13;;
3133;SDS011;1577;49.912;10.924;2024-01-07T10:33:22;9.93;;;6.57;;
3133;SDS011;1577;49.912;10.924;2024-01-07T10:35:52;8.70;;;5.65;;
3133;SDS011;1577;49.912;10.924;2024-01-07T10:38:26;8.65;;;5.75;;
3133;SDS011;1577;49.912;10.924;2024-01-07T10:40:52;16.60;;;6.87;;
3133;SDS011;1577;49.912;10.924;2024-01-07T10:43:20;5.20;;;3.50;;
3133;SDS011;1577;49.912;10.924;2024-01-07T10:45:47;13.87;;;8.77;;
3133;SDS011;1577;49.912;10.924;2024-01-07T10:48:18;15.27;;;8.30;;
3133;SDS011;1577;49.912;10.924;2024-01-07T10:50:45;12.93;;;8.80;;
3133;SDS011;1577;49.912;10.924;2024-01-07T10:53:17;11.85;;;7.68;;
3133;SDS011;1577;49.912;10.924;2024-01-07T10:55:48;12.13;;;6.93;;
3133;SDS011;1577;49.912;10.924;2024-01-07T10:58:19;16.25;;;8.48;;
3133;SDS011;1577;49.912;10.924;2024-01-07T11:00:46;15.70;;;7.47;;
3133;SDS011;1577;49.912;10.924;2024-01-07T11:05:59;8.45;;;5.05;;
3133;SDS011;1577;49.912;10.924;2024-01-07T11:08:33;9.80;;;5.70;;
3133;SDS011;1577;49.912;10.924;2024-01-07T11:11:06;13.80;;;8.40;;
3133;SDS011;1577;49.912;10.924;2024-01-07T11:13:38;12.63;;;6.97;;
3133;SDS011;1577;49.912;10.924;2024-01-07T11:16:05;7.32;;;5.07;;
3133;SDS011;1577;49.912;10.924;2024-01-07T11:18:37;11.60;;;6.13;;
3133;SDS011;1577;49.912;10.924;2024-01-07T11:21:22;14.15;;;8.18;;
3133;SDS011;1577;49.912;10.924;2024-01-07T11:23:51;11.02;;;5.32;;
3133;SDS011;1577;49.912;10.924;2024-01-07T11:26:18;6.30;;;5.57;;
3133;SDS011;1577;49.912;10.924;2024-01-07T11:31:18;9.45;;;5.50;;
3133;SDS011;1577;49.912;10.924;2024-01-07T11:33:45;8.05;;;5.40;;
3133;SDS011;1577;49.912;10.924;2024-01-07T11:36:13;8.88;;;5.72;;
3133;SDS011;1577;49.912;10.924;2024-01-07T11:41:09;8.25;;;4.85;;
3133;SDS011;1577;49.912;10.924;2024-01-07T11:43:37;7.47;;;3.95;;
3133;SDS011;1577;49.912;10.924;2024-01-07T11:46:03;6.40;;;4.37;;
3133;SDS011;1577;49.912;10.924;2024-01-07T11:48:28;5.33;;;4.77;;
3133;SDS011;1577;49.912;10.924;2024-01-07T11:50:54;8.77;;;5.50;;
3133;SDS011;1577;49.912;10.924;2024-01-07T11:53:20;3.70;;;3.40;;
3133;SDS011;1577;49.912;10.924;2024-01-07T11:55:46;4.60;;;3.37;;
3133;SDS011;1577;49.912;10.924;2024-01-07T11:58:12;3.92;;;2.83;;
3133;SDS011;1577;49.912;10.924;2024-01-07T12:00:37;5.70;;;3.23;;
3133;SDS011;1577;49.912;10.924;2024-01-07T12:03:03;6.63;;;2.90;;
3133;SDS011;1577;49.912;10.924;2024-01-07T12:05:29;4.23;;;2.23;;
3133;SDS011;1577;49.912;10.924;2024-01-07T12:07:55;8.23;;;4.53;;
3133;SDS011;1577;49.912;10.924;2024-01-07T12:10:22;6.20;;;3.65;;
3133;SDS011;1577;49.912;10.924;2024-01-07T12:12:48;5.28;;;4.05;;
3133;SDS011;1577;49.912;10.924;2024-01-07T12:15:16;7.05;;;3.55;;
3133;SDS011;1577;49.912;10.924;2024-01-07T12:17:42;5.90;;;4.18;;
3133;SDS011;1577;49.912;10.924;2024-01-07T12:20:07;6.00;;;3.10;;
3133;SDS011;1577;49.912;10.924;2024-01-07T12:22:40;5.10;;;3.10;;
3133;SDS011;1577;49.912;10.924;2024-01-07T12:25:06;5.38;;;3.00;;
3133;SDS011;1577;49.912;10.924;2024-01-07T12:27:33;9.40;;;3.40;;
3133;SDS011;1577;49.912;10.924;2024-01-07T12:29:59;3.88;;;2.58;;
3133;SDS011;1577;49.912;10.924;2024-01-07T12:32:28;4.13;;;3.33;;
3133;SDS011;1577;49.912;10.924;2024-01-07T12:34:58;3.47;;;3.17;;
3133;SDS011;1577;49.912;10.924;2024-01-07T12:37:27;4.82;;;3.05;;
3133;SDS011;1577;49.912;10.924;2024-01-07T12:39:54;2.38;;;1.65;;
3133;SDS011;1577;49.912;10.924;2024-01-07T12:42:20;4.63;;;2.30;;
3133;SDS011;1577;49.912;10.924;2024-01-07T12:44:49;2.67;;;1.90;;
3133;SDS011;1577;49.912;10.924;2024-01-07T12:47:16;2.33;;;1.95;;
3133;SDS011;1577;49.912;10.924;2024-01-07T12:49:41;5.30;;;3.10;;
3133;SDS011;1577;49.912;10.924;2024-01-07T12:52:07;5.43;;;1.40;;
3133;SDS011;1577;49.912;10.924;2024-01-07T12:54:34;3.30;;;1.85;;
3133;SDS011;1577;49.912;10.924;2024-01-07T12:57:00;2.67;;;2.13;;
3133;SDS011;1577;49.912;10.924;2024-01-07T12:59:25;3.20;;;2.80;;
3133;SDS011;1577;49.912;10.924;2024-01-07T13:01:51;5.63;;;3.50;;
3133;SDS011;1577;49.912;10.924;2024-01-07T13:04:17;6.20;;;4.27;;
3133;SDS011;1577;49.912;10.924;2024-01-07T13:06:47;5.80;;;4.40;;
3133;SDS011;1577;49.912;10.924;2024-01-07T13:09:12;5.50;;;2.65;;
3133;SDS011;1577;49.912;10.924;2024-01-07T13:11:38;3.58;;;2.72;;
3133;SDS011;1577;49.912;10.924;2024-01-07T13:14:04;4.33;;;2.87;;
3133;SDS011;1577;49.912;10.924;2024-01-07T13:16:30;2.97;;;2.67;;
3133;SDS011;1577;49.912;10.924;2024-01-07T13:18:55;3.63;;;2.83;;
3133;SDS011;1577;49.912;10.924;2024-01-07T13:21:21;4.27;;;3.20;;
3133;SDS011;1577;49.912;10.924;2024-01-07T13:23:47;3.83;;;3.20;;
3133;SDS011;1577;49.912;10.924;2024-01-07T13:26:16;5.73;;;3.00;;
3133;SDS011;1577;49.912;10.924;2024-01-07T13:28:41;5.40;;;3.85;;
3133;SDS011;1577;49.912;10.924;2024-01-07T13:31:10;3.23;;;2.30;;
3133;SDS011;1577;49.912;10.924;2024-01-07T13:33:40;5.00;;;4.18;;
3133;SDS011;1577;49.912;10.924;2024-01-07T13:36:06;4.57;;;4.10;;
3133;SDS011;1577;49.912;10.924;2024-01-07T13:38:35;5.45;;;4.35;;
3133;SDS011;1577;49.912;10.924;2024-01-07T13:41:03;4.88;;;3.97;;
3133;SDS011;1577;49.912;10.924;2024-01-07T13:43:29;6.83;;;3.77;;
3133;SDS011;1577;49.912;10.924;2024-01-07T13:45:55;5.40;;;4.17;;
3133;SDS011;1577;49.912;10.924;2024-01-07T13:48:21;5.57;;;3.78;;
3133;SDS011;1577;49.912;10.924;2024-01-07T13:50:46;2.87;;;2.27;;
3133;SDS011;1577;49.912;10.924;2024-01-07T13:53:14;4.63;;;2.67;;
3133;SDS011;1577;49.912;10.924;2024-01-07T13:55:40;4.00;;;2.93;;
3133;SDS011;1577;49.912;10.924;2024-01-07T13:58:05;3.20;;;2.90;;
3133;SDS011;1577;49.912;10.924;2024-01-07T14:00:31;7.30;;;4.27;;
3133;SDS011;1577;49.912;10.924;2024-01-07T14:02:56;5.17;;;3.30;;
3133;SDS011;1577;49.912;10.924;2024-01-07T14:05:22;5.47;;;4.10;;
3133;SDS011;1577;49.912;10.924;2024-01-07T14:07:48;5.43;;;4.20;;
3133;SDS011;1577;49.912;10.924;2024-01-07T14:10:13;7.30;;;3.17;;
3133;SDS011;1577;49.912;10.924;2024-01-07T14:12:39;10.77;;;4.47;;
3133;SDS011;1577;49.912;10.924;2024-01-07T14:15:05;5.23;;;4.23;;
3133;SDS011;1577;49.912;10.924;2024-01-07T14:17:33;7.15;;;4.20;;
3133;SDS011;1577;49.912;10.924;2024-01-07T14:19:58;2.27;;;2.10;;
3133;SDS011;1577;49.912;10.924;2024-01-07T14:22:24;5.20;;;3.97;;
3133;SDS011;1577;49.912;10.924;2024-01-07T14:24:49;4.50;;;3.90;;
3133;SDS011;1577;49.912;10.924;2024-01-07T14:27:15;4.20;;;3.47;;
3133;SDS011;1577;49.912;10.924;2024-01-07T14:29:41;5.90;;;4.43;;
3133;SDS011;1577;49.912;10.924;2024-01-07T14:32:08;5.97;;;3.78;;
3133;SDS011;1577;49.912;10.924;2024-01-07T14:34:33;7.37;;;4.53;;
3133;SDS011;1577;49.912;10.924;2024-01-07T14:37:02;4.35;;;3.88;;
3133;SDS011;1577;49.912;10.924;2024-01-07T14:39:28;4.57;;;2.80;;
3133;SDS011;1577;49.912;10.924;2024-01-07T14:41:53;5.50;;;3.53;;
3133;SDS011;1577;49.912;10.924;2024-01-07T14:44:19;3.47;;;2.73;;
3133;SDS011;1577;49.912;10.924;2024-01-07T14:46:45;8.25;;;4.70;;
3133;SDS011;1577;49.912;10.924;2024-01-07T14:49:11;5.17;;;4.20;;
3133;SDS011;1577;49.912;10.924;2024-01-07T14:51:37;5.10;;;4.40;;
3133;SDS011;1577;49.912;10.924;2024-01-07T14:54:02;7.27;;;4.67;;
3133;SDS011;1577;49.912;10.924;2024-01-07T14:56:28;5.60;;;3.87;;
3133;SDS011;1577;49.912;10.924;2024-01-07T14:58:54;5.00;;;4.43;;